sensor_id;sensor_type;location;lat;lon;timestamp;temperature;humidity
65876;HTU21D;52657;51.128;5.938;2023-05-10T00:01:34;17.68;73.25
65876;HTU21D;52657;51.128;5.938;2023-05-10T00:03:59;17.70;73.36
65876;HTU21D;52657;51.128;5.938;2023-05-10T00:06:25;17.73;73.35
65876;HTU21D;52657;51.128;5.938;2023-05-10T00:08:51;17.69;73.33
65876;HTU21D;52657;51.128;5.938;2023-05-10T00:11:17;17.68;73.40
65876;HTU21D;52657;51.128;5.938;2023-05-10T00:13:43;17.64;73.51
65876;HTU21D;52657;51.128;5.938;2023-05-10T00:16:08;17.64;73.71
65876;HTU21D;52657;51.128;5.938;2023-05-10T00:18:34;17.64;73.62
65876;HTU21D;52657;51.128;5.938;2023-05-10T00:21:00;17.65;73.54
65876;HTU21D;52657;51.128;5.938;2023-05-10T00:23:26;17.58;73.76
65876;HTU21D;52657;51.128;5.938;2023-05-10T00:25:51;17.58;74.06
65876;HTU21D;52657;51.128;5.938;2023-05-10T00:28:17;17.59;74.14
65876;HTU21D;52657;51.128;5.938;2023-05-10T00:30:43;17.61;74.01
65876;HTU21D;52657;51.128;5.938;2023-05-10T00:33:09;17.63;73.90
65876;HTU21D;52657;51.128;5.938;2023-05-10T00:35:35;17.63;73.57
65876;HTU21D;52657;51.128;5.938;2023-05-10T00:38:00;17.62;73.60
65876;HTU21D;52657;51.128;5.938;2023-05-10T00:40:26;17.63;73.51
65876;HTU21D;52657;51.128;5.938;2023-05-10T00:42:57;17.63;73.57
65876;HTU21D;52657;51.128;5.938;2023-05-10T00:45:24;17.63;73.61
65876;HTU21D;52657;51.128;5.938;2023-05-10T00:47:51;17.65;73.63
65876;HTU21D;52657;51.128;5.938;2023-05-10T00:50:24;17.66;73.62
65876;HTU21D;52657;51.128;5.938;2023-05-10T00:52:50;17.65;73.57
65876;HTU21D;52657;51.128;5.938;2023-05-10T00:55:16;17.63;73.70
65876;HTU21D;52657;51.128;5.938;2023-05-10T00:57:42;17.63;73.62
65876;HTU21D;52657;51.128;5.938;2023-05-10T01:00:09;17.62;73.67
65876;HTU21D;52657;51.128;5.938;2023-05-10T01:02:35;17.61;73.50
65876;HTU21D;52657;51.128;5.938;2023-05-10T01:05:02;17.60;73.48
65876;HTU21D;52657;51.128;5.938;2023-05-10T01:07:31;17.58;73.38
65876;HTU21D;52657;51.128;5.938;2023-05-10T01:09:57;17.54;73.29
65876;HTU21D;52657;51.128;5.938;2023-05-10T01:12:24;17.51;73.38
65876;HTU21D;52657;51.128;5.938;2023-05-10T01:14:50;17.50;73.38
65876;HTU21D;52657;51.128;5.938;2023-05-10T01:17:16;17.49;73.44
65876;HTU21D;52657;51.128;5.938;2023-05-10T01:19:42;17.46;73.44
65876;HTU21D;52657;51.128;5.938;2023-05-10T01:22:29;17.41;73.64
65876;HTU21D;52657;51.128;5.938;2023-05-10T01:35:41;17.34;73.84
65876;HTU21D;52657;51.128;5.938;2023-05-10T01:38:19;17.31;74.09
65876;HTU21D;52657;51.128;5.938;2023-05-10T01:41:13;17.32;74.10
65876;HTU21D;52657;51.128;5.938;2023-05-10T01:47:04;17.32;73.96
65876;HTU21D;52657;51.128;5.938;2023-05-10T01:49:36;17.28;74.18
65876;HTU21D;52657;51.128;5.938;2023-05-10T01:52:14;17.30;74.25
65876;HTU21D;52657;51.128;5.938;2023-05-10T01:55:00;17.28;74.26
65876;HTU21D;52657;51.128;5.938;2023-05-10T01:57:33;17.29;74.38
65876;HTU21D;52657;51.128;5.938;2023-05-10T02:00:02;17.30;74.49
65876;HTU21D;52657;51.128;5.938;2023-05-10T02:02:46;17.32;74.35
65876;HTU21D;52657;51.128;5.938;2023-05-10T02:05:15;17.28;74.50
65876;HTU21D;52657;51.128;5.938;2023-05-10T02:07:42;17.25;74.51
65876;HTU21D;52657;51.128;5.938;2023-05-10T02:10:10;17.19;74.83
65876;HTU21D;52657;51.128;5.938;2023-05-10T02:12:41;17.22;74.94
65876;HTU21D;52657;51.128;5.938;2023-05-10T02:15:09;17.19;74.80
65876;HTU21D;52657;51.128;5.938;2023-05-10T02:17:37;17.13;75.05
65876;HTU21D;52657;51.128;5.938;2023-05-10T02:20:06;17.14;75.14
65876;HTU21D;52657;51.128;5.938;2023-05-10T02:22:35;17.13;75.11
65876;HTU21D;52657;51.128;5.938;2023-05-10T02:25:03;17.08;75.25
65876;HTU21D;52657;51.128;5.938;2023-05-10T02:27:30;17.09;75.25
65876;HTU21D;52657;51.128;5.938;2023-05-10T02:29:57;17.07;75.25
65876;HTU21D;52657;51.128;5.938;2023-05-10T02:32:26;17.05;75.24
65876;HTU21D;52657;51.128;5.938;2023-05-10T02:34:54;17.05;75.21
65876;HTU21D;52657;51.128;5.938;2023-05-10T02:37:22;16.99;75.31
65876;HTU21D;52657;51.128;5.938;2023-05-10T02:39:50;16.96;75.41
65876;HTU21D;52657;51.128;5.938;2023-05-10T02:42:18;16.92;75.54
65876;HTU21D;52657;51.128;5.938;2023-05-10T02:44:52;16.94;75.59
65876;HTU21D;52657;51.128;5.938;2023-05-10T02:47:19;16.95;75.63
65876;HTU21D;52657;51.128;5.938;2023-05-10T02:49:46;16.95;75.49
65876;HTU21D;52657;51.128;5.938;2023-05-10T02:52:18;16.94;75.70
65876;HTU21D;52657;51.128;5.938;2023-05-10T02:54:52;16.98;75.67
65876;HTU21D;52657;51.128;5.938;2023-05-10T02:57:26;17.02;75.40
65876;HTU21D;52657;51.128;5.938;2023-05-10T02:59:53;16.98;75.40
65876;HTU21D;52657;51.128;5.938;2023-05-10T03:02:20;16.90;75.50
65876;HTU21D;52657;51.128;5.938;2023-05-10T03:04:46;16.87;75.54
65876;HTU21D;52657;51.128;5.938;2023-05-10T03:07:15;16.85;75.72
65876;HTU21D;52657;51.128;5.938;2023-05-10T03:09:41;16.84;75.75
65876;HTU21D;52657;51.128;5.938;2023-05-10T03:12:21;16.85;75.76
65876;HTU21D;52657;51.128;5.938;2023-05-10T03:18:01;16.88;75.55
65876;HTU21D;52657;51.128;5.938;2023-05-10T03:20:59;16.85;75.50
65876;HTU21D;52657;51.128;5.938;2023-05-10T03:23:33;16.86;75.43
65876;HTU21D;52657;51.128;5.938;2023-05-10T03:26:01;16.85;75.44
65876;HTU21D;52657;51.128;5.938;2023-05-10T03:28:30;16.86;75.50
65876;HTU21D;52657;51.128;5.938;2023-05-10T03:30:59;16.90;75.40
65876;HTU21D;52657;51.128;5.938;2023-05-10T03:33:25;16.89;75.16
65876;HTU21D;52657;51.128;5.938;2023-05-10T03:35:51;16.87;75.05
65876;HTU21D;52657;51.128;5.938;2023-05-10T03:38:16;16.80;74.89
65876;HTU21D;52657;51.128;5.938;2023-05-10T03:40:42;16.72;74.93
65876;HTU21D;52657;51.128;5.938;2023-05-10T03:43:08;16.73;74.92
65876;HTU21D;52657;51.128;5.938;2023-05-10T03:45:34;16.69;74.69
65876;HTU21D;52657;51.128;5.938;2023-05-10T03:48:00;16.71;74.60
65876;HTU21D;52657;51.128;5.938;2023-05-10T03:50:26;16.69;74.50
65876;HTU21D;52657;51.128;5.938;2023-05-10T03:52:52;16.69;74.38
65876;HTU21D;52657;51.128;5.938;2023-05-10T03:55:19;16.65;74.37
65876;HTU21D;52657;51.128;5.938;2023-05-10T03:57:45;16.63;74.41
65876;HTU21D;52657;51.128;5.938;2023-05-10T04:00:11;16.55;74.45
65876;HTU21D;52657;51.128;5.938;2023-05-10T04:02:39;16.51;74.67
65876;HTU21D;52657;51.128;5.938;2023-05-10T04:05:07;16.45;74.60
65876;HTU21D;52657;51.128;5.938;2023-05-10T04:07:33;16.42;74.72
65876;HTU21D;52657;51.128;5.938;2023-05-10T04:09:59;16.39;74.93
65876;HTU21D;52657;51.128;5.938;2023-05-10T04:12:25;16.40;74.96
65876;HTU21D;52657;51.128;5.938;2023-05-10T04:14:51;16.37;74.91
65876;HTU21D;52657;51.128;5.938;2023-05-10T04:17:17;16.30;75.09
65876;HTU21D;52657;51.128;5.938;2023-05-10T04:19:43;16.31;75.23
65876;HTU21D;52657;51.128;5.938;2023-05-10T04:22:09;16.32;75.22
65876;HTU21D;52657;51.128;5.938;2023-05-10T04:24:34;16.33;75.18
65876;HTU21D;52657;51.128;5.938;2023-05-10T04:27:03;16.39;75.18
65876;HTU21D;52657;51.128;5.938;2023-05-10T04:29:32;16.42;75.09
65876;HTU21D;52657;51.128;5.938;2023-05-10T04:31:57;16.43;75.04
65876;HTU21D;52657;51.128;5.938;2023-05-10T04:34:24;16.45;75.04
65876;HTU21D;52657;51.128;5.938;2023-05-10T04:36:49;16.47;75.02
65876;HTU21D;52657;51.128;5.938;2023-05-10T04:39:15;16.50;75.02
65876;HTU21D;52657;51.128;5.938;2023-05-10T04:41:41;16.55;74.80
65876;HTU21D;52657;51.128;5.938;2023-05-10T04:44:06;16.58;74.83
65876;HTU21D;52657;51.128;5.938;2023-05-10T04:46:32;16.63;74.51
65876;HTU21D;52657;51.128;5.938;2023-05-10T04:48:58;16.62;74.54
65876;HTU21D;52657;51.128;5.938;2023-05-10T04:51:24;16.67;74.56
65876;HTU21D;52657;51.128;5.938;2023-05-10T04:53:50;16.69;74.36
65876;HTU21D;52657;51.128;5.938;2023-05-10T04:56:16;16.71;74.36
65876;HTU21D;52657;51.128;5.938;2023-05-10T04:58:42;16.72;74.25
65876;HTU21D;52657;51.128;5.938;2023-05-10T05:01:08;16.66;74.15
65876;HTU21D;52657;51.128;5.938;2023-05-10T05:03:37;16.62;74.36
65876;HTU21D;52657;51.128;5.938;2023-05-10T05:06:03;16.64;74.41
65876;HTU21D;52657;51.128;5.938;2023-05-10T05:08:28;16.67;74.55
65876;HTU21D;52657;51.128;5.938;2023-05-10T05:10:54;16.70;74.33
65876;HTU21D;52657;51.128;5.938;2023-05-10T05:13:20;16.64;74.46
65876;HTU21D;52657;51.128;5.938;2023-05-10T05:15:46;16.63;74.63
65876;HTU21D;52657;51.128;5.938;2023-05-10T05:18:12;16.66;74.60
65876;HTU21D;52657;51.128;5.938;2023-05-10T05:20:37;16.70;74.41
65876;HTU21D;52657;51.128;5.938;2023-05-10T05:23:03;16.72;74.37
65876;HTU21D;52657;51.128;5.938;2023-05-10T05:25:29;16.76;74.31
65876;HTU21D;52657;51.128;5.938;2023-05-10T05:27:55;16.79;74.14
65876;HTU21D;52657;51.128;5.938;2023-05-10T05:30:20;16.79;73.96
65876;HTU21D;52657;51.128;5.938;2023-05-10T05:32:46;16.76;73.96
65876;HTU21D;52657;51.128;5.938;2023-05-10T05:35:15;16.77;74.05
65876;HTU21D;52657;51.128;5.938;2023-05-10T05:37:40;16.75;74.15
65876;HTU21D;52657;51.128;5.938;2023-05-10T05:40:06;16.76;74.16
65876;HTU21D;52657;51.128;5.938;2023-05-10T05:42:32;16.80;74.02
65876;HTU21D;52657;51.128;5.938;2023-05-10T05:44:58;16.85;73.75
65876;HTU21D;52657;51.128;5.938;2023-05-10T05:47:24;16.88;73.82
65876;HTU21D;52657;51.128;5.938;2023-05-10T05:49:50;16.89;73.86
65876;HTU21D;52657;51.128;5.938;2023-05-10T05:52:16;16.86;73.69
65876;HTU21D;52657;51.128;5.938;2023-05-10T05:54:42;16.87;73.80
65876;HTU21D;52657;51.128;5.938;2023-05-10T05:57:08;16.89;73.76
65876;HTU21D;52657;51.128;5.938;2023-05-10T05:59:34;16.90;73.56
65876;HTU21D;52657;51.128;5.938;2023-05-10T06:02:00;16.88;73.48
65876;HTU21D;52657;51.128;5.938;2023-05-10T06:04:26;16.89;73.34
65876;HTU21D;52657;51.128;5.938;2023-05-10T06:06:51;16.85;73.49
65876;HTU21D;52657;51.128;5.938;2023-05-10T06:09:17;16.88;73.58
65876;HTU21D;52657;51.128;5.938;2023-05-10T06:11:43;16.95;73.46
65876;HTU21D;52657;51.128;5.938;2023-05-10T06:14:09;16.99;73.23
65876;HTU21D;52657;51.128;5.938;2023-05-10T06:16:34;16.98;73.31
65876;HTU21D;52657;51.128;5.938;2023-05-10T06:19:00;16.98;73.16
65876;HTU21D;52657;51.128;5.938;2023-05-10T06:21:26;17.01;73.05
65876;HTU21D;52657;51.128;5.938;2023-05-10T06:23:52;17.05;72.91
65876;HTU21D;52657;51.128;5.938;2023-05-10T06:26:17;17.13;73.12
65876;HTU21D;52657;51.128;5.938;2023-05-10T06:28:43;17.20;72.97
65876;HTU21D;52657;51.128;5.938;2023-05-10T06:31:09;17.22;72.81
65876;HTU21D;52657;51.128;5.938;2023-05-10T06:33:36;17.30;73.12
65876;HTU21D;52657;51.128;5.938;2023-05-10T06:36:02;17.40;73.19
65876;HTU21D;52657;51.128;5.938;2023-05-10T06:38:28;17.60;73.36
65876;HTU21D;52657;51.128;5.938;2023-05-10T06:40:55;17.78;72.74
65876;HTU21D;52657;51.128;5.938;2023-05-10T06:43:21;17.98;72.48
65876;HTU21D;52657;51.128;5.938;2023-05-10T06:45:48;18.15;71.83
65876;HTU21D;52657;51.128;5.938;2023-05-10T06:48:13;18.35;70.89
65876;HTU21D;52657;51.128;5.938;2023-05-10T06:50:39;18.53;70.54
65876;HTU21D;52657;51.128;5.938;2023-05-10T06:53:05;18.69;69.29
65876;HTU21D;52657;51.128;5.938;2023-05-10T06:55:31;18.74;67.73
65876;HTU21D;52657;51.128;5.938;2023-05-10T06:57:56;18.83;67.75
65876;HTU21D;52657;51.128;5.938;2023-05-10T07:00:22;18.99;68.06
65876;HTU21D;52657;51.128;5.938;2023-05-10T07:02:48;19.12;66.75
65876;HTU21D;52657;51.128;5.938;2023-05-10T07:05:14;19.21;65.56
65876;HTU21D;52657;51.128;5.938;2023-05-10T07:07:40;19.31;65.62
65876;HTU21D;52657;51.128;5.938;2023-05-10T07:10:06;19.45;64.67
65876;HTU21D;52657;51.128;5.938;2023-05-10T07:12:33;19.48;63.97
65876;HTU21D;52657;51.128;5.938;2023-05-10T07:14:59;19.45;63.34
65876;HTU21D;52657;51.128;5.938;2023-05-10T07:17:24;19.29;62.83
65876;HTU21D;52657;51.128;5.938;2023-05-10T07:19:50;19.12;62.98
65876;HTU21D;52657;51.128;5.938;2023-05-10T07:22:17;19.03;63.16
65876;HTU21D;52657;51.128;5.938;2023-05-10T07:24:43;19.00;63.66
65876;HTU21D;52657;51.128;5.938;2023-05-10T07:27:09;18.98;63.71
65876;HTU21D;52657;51.128;5.938;2023-05-10T07:29:35;18.91;64.00
65876;HTU21D;52657;51.128;5.938;2023-05-10T07:32:04;18.84;63.39
65876;HTU21D;52657;51.128;5.938;2023-05-10T07:34:31;18.79;63.93
65876;HTU21D;52657;51.128;5.938;2023-05-10T07:37:00;18.77;64.08
65876;HTU21D;52657;51.128;5.938;2023-05-10T07:39:27;18.73;64.10
65876;HTU21D;52657;51.128;5.938;2023-05-10T07:41:55;18.65;64.26
65876;HTU21D;52657;51.128;5.938;2023-05-10T07:44:22;18.63;64.24
65876;HTU21D;52657;51.128;5.938;2023-05-10T07:46:47;18.64;64.19
65876;HTU21D;52657;51.128;5.938;2023-05-10T07:49:14;18.49;64.86
65876;HTU21D;52657;51.128;5.938;2023-05-10T07:51:40;18.47;64.92
65876;HTU21D;52657;51.128;5.938;2023-05-10T07:54:06;18.41;65.32
65876;HTU21D;52657;51.128;5.938;2023-05-10T07:56:32;18.41;65.06
65876;HTU21D;52657;51.128;5.938;2023-05-10T07:58:59;18.36;65.40
65876;HTU21D;52657;51.128;5.938;2023-05-10T08:01:26;18.36;65.69
65876;HTU21D;52657;51.128;5.938;2023-05-10T08:03:52;18.39;65.04
65876;HTU21D;52657;51.128;5.938;2023-05-10T08:06:20;18.28;64.95
65876;HTU21D;52657;51.128;5.938;2023-05-10T08:08:47;18.24;65.53
65876;HTU21D;52657;51.128;5.938;2023-05-10T08:11:16;18.26;65.91
65876;HTU21D;52657;51.128;5.938;2023-05-10T08:13:42;18.34;66.29
65876;HTU21D;52657;51.128;5.938;2023-05-10T08:16:07;18.39;66.09
65876;HTU21D;52657;51.128;5.938;2023-05-10T08:18:33;18.37;65.88
65876;HTU21D;52657;51.128;5.938;2023-05-10T08:20:59;18.32;65.77
65876;HTU21D;52657;51.128;5.938;2023-05-10T08:23:25;18.19;65.92
65876;HTU21D;52657;51.128;5.938;2023-05-10T08:25:51;18.07;66.41
65876;HTU21D;52657;51.128;5.938;2023-05-10T08:28:17;18.03;66.43
65876;HTU21D;52657;51.128;5.938;2023-05-10T08:30:42;17.94;66.98
65876;HTU21D;52657;51.128;5.938;2023-05-10T08:33:08;17.90;67.22
65876;HTU21D;52657;51.128;5.938;2023-05-10T08:35:34;17.93;67.55
65876;HTU21D;52657;51.128;5.938;2023-05-10T08:38:00;17.95;67.49
65876;HTU21D;52657;51.128;5.938;2023-05-10T08:40:27;17.94;67.60
65876;HTU21D;52657;51.128;5.938;2023-05-10T08:43:07;17.99;67.78
65876;HTU21D;52657;51.128;5.938;2023-05-10T08:45:40;17.99;67.44
65876;HTU21D;52657;51.128;5.938;2023-05-10T08:48:10;17.83;67.42
65876;HTU21D;52657;51.128;5.938;2023-05-10T08:50:39;17.68;67.68
65876;HTU21D;52657;51.128;5.938;2023-05-10T08:53:15;17.67;67.75
65876;HTU21D;52657;51.128;5.938;2023-05-10T08:55:42;17.64;67.96
65876;HTU21D;52657;51.128;5.938;2023-05-10T08:58:09;17.61;68.20
65876;HTU21D;52657;51.128;5.938;2023-05-10T09:00:36;17.65;68.32
65876;HTU21D;52657;51.128;5.938;2023-05-10T09:03:04;17.66;68.30
65876;HTU21D;52657;51.128;5.938;2023-05-10T09:05:31;17.67;68.40
65876;HTU21D;52657;51.128;5.938;2023-05-10T09:07:56;17.69;68.47
65876;HTU21D;52657;51.128;5.938;2023-05-10T09:10:23;17.78;68.62
65876;HTU21D;52657;51.128;5.938;2023-05-10T09:12:52;17.83;68.34
65876;HTU21D;52657;51.128;5.938;2023-05-10T09:15:20;17.84;68.15
65876;HTU21D;52657;51.128;5.938;2023-05-10T09:17:47;17.84;68.01
65876;HTU21D;52657;51.128;5.938;2023-05-10T09:20:14;17.88;68.08
65876;HTU21D;52657;51.128;5.938;2023-05-10T09:22:40;17.89;67.98
65876;HTU21D;52657;51.128;5.938;2023-05-10T09:25:09;17.94;68.07
65876;HTU21D;52657;51.128;5.938;2023-05-10T09:27:38;17.97;67.48
65876;HTU21D;52657;51.128;5.938;2023-05-10T09:30:05;18.03;67.04
65876;HTU21D;52657;51.128;5.938;2023-05-10T09:32:41;18.00;66.98
65876;HTU21D;52657;51.128;5.938;2023-05-10T09:35:16;17.97;66.98
65876;HTU21D;52657;51.128;5.938;2023-05-10T09:37:46;17.98;67.45
65876;HTU21D;52657;51.128;5.938;2023-05-10T09:40:21;18.05;67.39
65876;HTU21D;52657;51.128;5.938;2023-05-10T09:43:07;18.13;67.39
65876;HTU21D;52657;51.128;5.938;2023-05-10T09:45:36;18.17;67.16
65876;HTU21D;52657;51.128;5.938;2023-05-10T09:48:03;18.22;66.94
65876;HTU21D;52657;51.128;5.938;2023-05-10T09:50:32;18.21;66.40
65876;HTU21D;52657;51.128;5.938;2023-05-10T09:53:01;18.18;66.86
65876;HTU21D;52657;51.128;5.938;2023-05-10T09:55:44;18.24;66.56
65876;HTU21D;52657;51.128;5.938;2023-05-10T09:58:15;18.38;66.81
65876;HTU21D;52657;51.128;5.938;2023-05-10T10:00:44;18.47;66.36
65876;HTU21D;52657;51.128;5.938;2023-05-10T10:03:20;18.52;65.59
65876;HTU21D;52657;51.128;5.938;2023-05-10T10:05:47;18.54;65.43
65876;HTU21D;52657;51.128;5.938;2023-05-10T10:08:15;18.63;65.27
65876;HTU21D;52657;51.128;5.938;2023-05-10T10:10:41;18.62;64.83
65876;HTU21D;52657;51.128;5.938;2023-05-10T10:13:09;18.64;65.13
65876;HTU21D;52657;51.128;5.938;2023-05-10T10:15:35;18.70;65.35
65876;HTU21D;52657;51.128;5.938;2023-05-10T10:18:02;18.77;64.90
65876;HTU21D;52657;51.128;5.938;2023-05-10T10:20:33;18.77;65.13
65876;HTU21D;52657;51.128;5.938;2023-05-10T10:23:02;18.82;64.88
65876;HTU21D;52657;51.128;5.938;2023-05-10T10:25:28;18.91;64.75
65876;HTU21D;52657;51.128;5.938;2023-05-10T10:28:01;18.93;64.15
65876;HTU21D;52657;51.128;5.938;2023-05-10T10:30:38;19.01;64.15
65876;HTU21D;52657;51.128;5.938;2023-05-10T10:36:08;19.09;63.60
65876;HTU21D;52657;51.128;5.938;2023-05-10T10:38:55;19.15;63.14
65876;HTU21D;52657;51.128;5.938;2023-05-10T10:41:33;19.08;62.93
65876;HTU21D;52657;51.128;5.938;2023-05-10T10:44:24;18.98;63.36
65876;HTU21D;52657;51.128;5.938;2023-05-10T10:50:03;18.87;64.22
65876;HTU21D;52657;51.128;5.938;2023-05-10T10:52:34;18.84;64.18
65876;HTU21D;52657;51.128;5.938;2023-05-10T11:00:28;18.98;63.50
65876;HTU21D;52657;51.128;5.938;2023-05-10T11:05:58;19.17;63.35
65876;HTU21D;52657;51.128;5.938;2023-05-10T11:08:27;19.26;63.55
65876;HTU21D;52657;51.128;5.938;2023-05-10T11:13:46;19.35;63.57
65876;HTU21D;52657;51.128;5.938;2023-05-10T11:16:23;19.41;63.40
65876;HTU21D;52657;51.128;5.938;2023-05-10T11:19:04;19.47;63.15
65876;HTU21D;52657;51.128;5.938;2023-05-10T11:21:33;19.53;63.05
65876;HTU21D;52657;51.128;5.938;2023-05-10T11:24:00;19.56;62.64
65876;HTU21D;52657;51.128;5.938;2023-05-10T11:26:31;19.58;61.86
65876;HTU21D;52657;51.128;5.938;2023-05-10T11:29:08;19.67;62.38
65876;HTU21D;52657;51.128;5.938;2023-05-10T11:31:41;19.82;62.31
65876;HTU21D;52657;51.128;5.938;2023-05-10T11:34:10;19.99;61.64
65876;HTU21D;52657;51.128;5.938;2023-05-10T11:36:42;20.10;61.12
65876;HTU21D;52657;51.128;5.938;2023-05-10T11:39:07;20.14;61.26
65876;HTU21D;52657;51.128;5.938;2023-05-10T11:41:33;20.24;61.24
65876;HTU21D;52657;51.128;5.938;2023-05-10T11:44:02;20.35;60.91
65876;HTU21D;52657;51.128;5.938;2023-05-10T11:46:28;20.49;60.35
65876;HTU21D;52657;51.128;5.938;2023-05-10T11:49:01;20.49;59.42
65876;HTU21D;52657;51.128;5.938;2023-05-10T11:51:35;20.42;59.64
65876;HTU21D;52657;51.128;5.938;2023-05-10T11:54:06;20.53;59.82
65876;HTU21D;52657;51.128;5.938;2023-05-10T11:56:37;20.64;58.15
65876;HTU21D;52657;51.128;5.938;2023-05-10T11:59:03;20.58;58.59
65876;HTU21D;52657;51.128;5.938;2023-05-10T12:01:30;20.57;58.11
65876;HTU21D;52657;51.128;5.938;2023-05-10T12:03:57;20.60;58.22
65876;HTU21D;52657;51.128;5.938;2023-05-10T12:06:27;20.73;58.77
65876;HTU21D;52657;51.128;5.938;2023-05-10T12:08:57;20.85;58.30
65876;HTU21D;52657;51.128;5.938;2023-05-10T12:11:27;21.02;57.76
65876;HTU21D;52657;51.128;5.938;2023-05-10T12:13:57;21.18;57.38
65876;HTU21D;52657;51.128;5.938;2023-05-10T12:16:25;21.30;56.92
65876;HTU21D;52657;51.128;5.938;2023-05-10T12:18:53;21.44;56.36
65876;HTU21D;52657;51.128;5.938;2023-05-10T12:21:21;21.62;57.00
65876;HTU21D;52657;51.128;5.938;2023-05-10T12:23:59;21.80;55.57
65876;HTU21D;52657;51.128;5.938;2023-05-10T12:26:26;21.84;55.28
65876;HTU21D;52657;51.128;5.938;2023-05-10T12:29:12;21.92;55.04
65876;HTU21D;52657;51.128;5.938;2023-05-10T12:31:58;21.96;54.72
65876;HTU21D;52657;51.128;5.938;2023-05-10T12:34:34;21.96;55.69
65876;HTU21D;52657;51.128;5.938;2023-05-10T12:37:02;22.06;54.99
65876;HTU21D;52657;51.128;5.938;2023-05-10T12:39:41;22.01;53.77
65876;HTU21D;52657;51.128;5.938;2023-05-10T12:42:07;21.91;53.81
65876;HTU21D;52657;51.128;5.938;2023-05-10T12:44:33;21.85;53.81
65876;HTU21D;52657;51.128;5.938;2023-05-10T12:46:59;21.81;54.45
65876;HTU21D;52657;51.128;5.938;2023-05-10T12:49:24;21.75;53.92
65876;HTU21D;52657;51.128;5.938;2023-05-10T12:51:50;21.64;53.96
65876;HTU21D;52657;51.128;5.938;2023-05-10T12:54:16;21.53;53.59
65876;HTU21D;52657;51.128;5.938;2023-05-10T12:56:42;21.39;53.97
65876;HTU21D;52657;51.128;5.938;2023-05-10T12:59:08;21.42;54.78
65876;HTU21D;52657;51.128;5.938;2023-05-10T13:01:34;21.37;54.59
65876;HTU21D;52657;51.128;5.938;2023-05-10T13:03:59;21.39;54.50
65876;HTU21D;52657;51.128;5.938;2023-05-10T13:06:25;21.34;54.46
65876;HTU21D;52657;51.128;5.938;2023-05-10T13:08:51;21.24;54.79
65876;HTU21D;52657;51.128;5.938;2023-05-10T13:11:17;21.24;55.34
65876;HTU21D;52657;51.128;5.938;2023-05-10T13:13:45;21.33;54.65
65876;HTU21D;52657;51.128;5.938;2023-05-10T13:16:11;21.30;54.20
65876;HTU21D;52657;51.128;5.938;2023-05-10T13:18:36;21.31;54.65
65876;HTU21D;52657;51.128;5.938;2023-05-10T13:21:02;21.40;54.82
65876;HTU21D;52657;51.128;5.938;2023-05-10T13:23:31;21.45;54.59
65876;HTU21D;52657;51.128;5.938;2023-05-10T13:25:59;21.45;54.24
65876;HTU21D;52657;51.128;5.938;2023-05-10T13:28:25;21.44;54.48
65876;HTU21D;52657;51.128;5.938;2023-05-10T13:30:51;21.48;54.52
65876;HTU21D;52657;51.128;5.938;2023-05-10T13:33:17;21.54;54.07
65876;HTU21D;52657;51.128;5.938;2023-05-10T13:35:43;21.52;53.68
65876;HTU21D;52657;51.128;5.938;2023-05-10T13:38:09;21.43;53.49
65876;HTU21D;52657;51.128;5.938;2023-05-10T13:40:35;21.34;54.24
65876;HTU21D;52657;51.128;5.938;2023-05-10T13:43:01;21.33;54.50
65876;HTU21D;52657;51.128;5.938;2023-05-10T13:45:30;21.42;55.10
65876;HTU21D;52657;51.128;5.938;2023-05-10T13:47:56;21.54;54.36
65876;HTU21D;52657;51.128;5.938;2023-05-10T13:50:21;21.60;54.23
65876;HTU21D;52657;51.128;5.938;2023-05-10T13:53:01;21.63;53.62
65876;HTU21D;52657;51.128;5.938;2023-05-10T13:55:27;21.62;54.06
65876;HTU21D;52657;51.128;5.938;2023-05-10T13:57:52;21.70;54.30
65876;HTU21D;52657;51.128;5.938;2023-05-10T14:00:19;21.75;53.84
65876;HTU21D;52657;51.128;5.938;2023-05-10T14:02:45;21.67;53.45
65876;HTU21D;52657;51.128;5.938;2023-05-10T14:05:10;21.64;53.81
65876;HTU21D;52657;51.128;5.938;2023-05-10T14:07:36;21.64;53.33
65876;HTU21D;52657;51.128;5.938;2023-05-10T14:10:02;21.59;54.09
65876;HTU21D;52657;51.128;5.938;2023-05-10T14:12:28;21.61;54.07
65876;HTU21D;52657;51.128;5.938;2023-05-10T14:14:54;21.62;54.42
65876;HTU21D;52657;51.128;5.938;2023-05-10T14:17:20;21.67;54.04
65876;HTU21D;52657;51.128;5.938;2023-05-10T14:19:46;21.76;53.28
65876;HTU21D;52657;51.128;5.938;2023-05-10T14:22:11;21.65;53.17
65876;HTU21D;52657;51.128;5.938;2023-05-10T14:24:40;21.69;53.44
65876;HTU21D;52657;51.128;5.938;2023-05-10T14:27:06;21.78;53.63
65876;HTU21D;52657;51.128;5.938;2023-05-10T14:29:32;21.89;52.78
65876;HTU21D;52657;51.128;5.938;2023-05-10T14:32:01;21.92;52.82
65876;HTU21D;52657;51.128;5.938;2023-05-10T14:34:29;21.97;52.78
65876;HTU21D;52657;51.128;5.938;2023-05-10T14:36:55;21.97;52.82
65876;HTU21D;52657;51.128;5.938;2023-05-10T14:39:21;21.95;52.94
65876;HTU21D;52657;51.128;5.938;2023-05-10T14:41:48;22.06;53.27
65876;HTU21D;52657;51.128;5.938;2023-05-10T14:44:14;22.17;52.33
65876;HTU21D;52657;51.128;5.938;2023-05-10T14:46:40;22.05;52.60
65876;HTU21D;52657;51.128;5.938;2023-05-10T14:49:07;22.08;52.56
65876;HTU21D;52657;51.128;5.938;2023-05-10T14:51:33;22.01;52.22
65876;HTU21D;52657;51.128;5.938;2023-05-10T14:53:59;21.89;52.73
65876;HTU21D;52657;51.128;5.938;2023-05-10T14:56:24;21.91;52.76
65876;HTU21D;52657;51.128;5.938;2023-05-10T14:58:51;21.94;52.79
65876;HTU21D;52657;51.128;5.938;2023-05-10T15:01:17;21.96;52.36
65876;HTU21D;52657;51.128;5.938;2023-05-10T15:03:42;21.93;52.20
65876;HTU21D;52657;51.128;5.938;2023-05-10T15:06:08;21.89;52.23
65876;HTU21D;52657;51.128;5.938;2023-05-10T15:08:34;21.79;52.18
65876;HTU21D;52657;51.128;5.938;2023-05-10T15:11:00;21.80;52.54
65876;HTU21D;52657;51.128;5.938;2023-05-10T15:13:26;21.83;52.56
65876;HTU21D;52657;51.128;5.938;2023-05-10T15:15:51;21.87;52.56
65876;HTU21D;52657;51.128;5.938;2023-05-10T15:18:21;21.96;52.55
65876;HTU21D;52657;51.128;5.938;2023-05-10T15:20:47;22.07;51.97
65876;HTU21D;52657;51.128;5.938;2023-05-10T15:23:13;22.12;51.68
65876;HTU21D;52657;51.128;5.938;2023-05-10T15:25:38;22.18;52.16
65876;HTU21D;52657;51.128;5.938;2023-05-10T15:28:05;22.19;51.68
65876;HTU21D;52657;51.128;5.938;2023-05-10T15:30:30;22.13;51.42
65876;HTU21D;52657;51.128;5.938;2023-05-10T15:32:56;22.11;51.06
65876;HTU21D;52657;51.128;5.938;2023-05-10T15:35:22;21.99;51.05
65876;HTU21D;52657;51.128;5.938;2023-05-10T15:37:48;21.93;51.77
65876;HTU21D;52657;51.128;5.938;2023-05-10T15:40:15;22.03;51.89
65876;HTU21D;52657;51.128;5.938;2023-05-10T15:42:40;22.01;51.50
65876;HTU21D;52657;51.128;5.938;2023-05-10T15:45:07;21.90;51.26
65876;HTU21D;52657;51.128;5.938;2023-05-10T15:47:32;21.84;51.45
65876;HTU21D;52657;51.128;5.938;2023-05-10T15:50:01;21.80;51.25
65876;HTU21D;52657;51.128;5.938;2023-05-10T15:52:28;21.75;51.40
65876;HTU21D;52657;51.128;5.938;2023-05-10T15:54:54;21.73;51.84